sensor_id;sensor_type;location;lat;lon;timestamp;pressure;altitude;pressure_sealevel;temperature;humidity
62864;BME280;48954;59.950;11.014;2023-07-31T00:02:18;98409.23;;;14.70;77.37
62864;BME280;48954;59.950;11.014;2023-07-31T00:04:44;98411.04;;;14.71;77.38
62864;BME280;48954;59.950;11.014;2023-07-31T00:07:10;98407.71;;;14.71;77.40
62864;BME280;48954;59.950;11.014;2023-07-31T00:09:37;98414.98;;;14.72;77.40
62864;BME280;48954;59.950;11.014;2023-07-31T00:12:03;98418.38;;;14.72;77.49
62864;BME280;48954;59.950;11.014;2023-07-31T00:14:29;98422.64;;;14.73;77.39
62864;BME280;48954;59.950;11.014;2023-07-31T00:16:55;98420.81;;;14.73;77.50
62864;BME280;48954;59.950;11.014;2023-07-31T00:19:21;98421.02;;;14.75;77.49
62864;BME280;48954;59.950;11.014;2023-07-31T00:21:47;98418.65;;;14.75;77.49
62864;BME280;48954;59.950;11.014;2023-07-31T00:24:13;98420.77;;;14.75;77.53
62864;BME280;48954;59.950;11.014;2023-07-31T00:26:39;98422.04;;;14.76;77.52
62864;BME280;48954;59.950;11.014;2023-07-31T00:29:08;98421.88;;;14.76;77.52
62864;BME280;48954;59.950;11.014;2023-07-31T00:31:34;98421.17;;;14.75;77.50
62864;BME280;48954;59.950;11.014;2023-07-31T00:34:03;98423.31;;;14.75;77.45
62864;BME280;48954;59.950;11.014;2023-07-31T00:36:30;98421.98;;;14.74;77.41
62864;BME280;48954;59.950;11.014;2023-07-31T00:39:00;98415.05;;;14.73;77.56
62864;BME280;48954;59.950;11.014;2023-07-31T00:41:41;98413.62;;;14.73;77.57
62864;BME280;48954;59.950;11.014;2023-07-31T00:44:21;98411.99;;;14.71;77.49
62864;BME280;48954;59.950;11.014;2023-07-31T00:46:55;98415.31;;;14.71;77.55
62864;BME280;48954;59.950;11.014;2023-07-31T00:49:22;98414.05;;;14.70;77.52
62864;BME280;48954;59.950;11.014;2023-07-31T00:51:53;98411.84;;;14.70;77.55
62864;BME280;48954;59.950;11.014;2023-07-31T00:54:25;98412.89;;;14.69;77.52
62864;BME280;48954;59.950;11.014;2023-07-31T00:57:12;98411.02;;;14.68;77.50
62864;BME280;48954;59.950;11.014;2023-07-31T00:59:38;98404.77;;;14.67;77.57
62864;BME280;48954;59.950;11.014;2023-07-31T01:02:19;98406.93;;;14.66;77.48
62864;BME280;48954;59.950;11.014;2023-07-31T01:04:47;98401.59;;;14.64;77.41
62864;BME280;48954;59.950;11.014;2023-07-31T01:07:31;98404.38;;;14.62;77.42
62864;BME280;48954;59.950;11.014;2023-07-31T01:10:02;98400.13;;;14.61;77.53
62864;BME280;48954;59.950;11.014;2023-07-31T01:12:34;98400.77;;;14.60;77.55
62864;BME280;48954;59.950;11.014;2023-07-31T01:15:06;98401.49;;;14.60;77.53
62864;BME280;48954;59.950;11.014;2023-07-31T01:17:38;98399.61;;;14.58;77.45
62864;BME280;48954;59.950;11.014;2023-07-31T01:20:13;98403.14;;;14.55;77.49
62864;BME280;48954;59.950;11.014;2023-07-31T01:23:00;98405.54;;;14.53;77.49
62864;BME280;48954;59.950;11.014;2023-07-31T01:31:36;98397.84;;;14.51;77.68
62864;BME280;48954;59.950;11.014;2023-07-31T01:34:10;98403.62;;;14.50;77.65
62864;BME280;48954;59.950;11.014;2023-07-31T01:36:41;98403.79;;;14.49;77.61
62864;BME280;48954;59.950;11.014;2023-07-31T01:39:09;98404.98;;;14.48;77.64
62864;BME280;48954;59.950;11.014;2023-07-31T01:41:36;98402.87;;;14.47;77.66
62864;BME280;48954;59.950;11.014;2023-07-31T01:44:04;98405.57;;;14.46;77.75
62864;BME280;48954;59.950;11.014;2023-07-31T01:46:33;98409.44;;;14.46;77.68
62864;BME280;48954;59.950;11.014;2023-07-31T01:49:00;98407.64;;;14.45;77.69
62864;BME280;48954;59.950;11.014;2023-07-31T01:51:27;98411.27;;;14.45;77.63
62864;BME280;48954;59.950;11.014;2023-07-31T01:53:56;98406.86;;;14.44;77.63
62864;BME280;48954;59.950;11.014;2023-07-31T01:56:36;98406.27;;;14.42;77.68
62864;BME280;48954;59.950;11.014;2023-07-31T01:59:04;98400.45;;;14.39;77.60
62864;BME280;48954;59.950;11.014;2023-07-31T02:01:30;98399.35;;;14.38;77.64
62864;BME280;48954;59.950;11.014;2023-07-31T02:03:56;98402.44;;;14.37;77.65
62864;BME280;48954;59.950;11.014;2023-07-31T02:06:27;98402.30;;;14.35;77.58
62864;BME280;48954;59.950;11.014;2023-07-31T02:08:53;98404.70;;;14.32;77.61
62864;BME280;48954;59.950;11.014;2023-07-31T02:11:20;98403.61;;;14.31;77.66
62864;BME280;48954;59.950;11.014;2023-07-31T02:13:47;98403.08;;;14.29;77.75
62864;BME280;48954;59.950;11.014;2023-07-31T02:16:14;98401.85;;;14.28;77.75
62864;BME280;48954;59.950;11.014;2023-07-31T02:18:40;98400.30;;;14.26;77.59
62864;BME280;48954;59.950;11.014;2023-07-31T02:21:08;98392.27;;;14.24;77.67
62864;BME280;48954;59.950;11.014;2023-07-31T02:23:34;98395.93;;;14.22;77.66
62864;BME280;48954;59.950;11.014;2023-07-31T02:26:01;98395.58;;;14.19;77.59
62864;BME280;48954;59.950;11.014;2023-07-31T02:28:26;98394.31;;;14.14;77.60
62864;BME280;48954;59.950;11.014;2023-07-31T02:30:53;98397.91;;;14.11;77.66
62864;BME280;48954;59.950;11.014;2023-07-31T02:33:20;98401.50;;;14.07;77.79
62864;BME280;48954;59.950;11.014;2023-07-31T02:35:46;98403.03;;;14.05;77.90
62864;BME280;48954;59.950;11.014;2023-07-31T02:38:12;98403.67;;;14.03;77.91
62864;BME280;48954;59.950;11.014;2023-07-31T02:40:40;98399.42;;;14.03;77.96
62864;BME280;48954;59.950;11.014;2023-07-31T02:43:06;98402.14;;;14.01;77.94
62864;BME280;48954;59.950;11.014;2023-07-31T02:45:33;98402.40;;;14.00;78.00
62864;BME280;48954;59.950;11.014;2023-07-31T02:48:04;98405.73;;;13.99;77.98
62864;BME280;48954;59.950;11.014;2023-07-31T02:50:32;98400.45;;;13.98;78.14
62864;BME280;48954;59.950;11.014;2023-07-31T02:52:59;98401.88;;;13.97;78.00
62864;BME280;48954;59.950;11.014;2023-07-31T02:55:25;98398.10;;;13.95;78.13
62864;BME280;48954;59.950;11.014;2023-07-31T02:57:51;98397.10;;;13.92;78.15
62864;BME280;48954;59.950;11.014;2023-07-31T03:00:18;98403.98;;;13.92;78.31
62864;BME280;48954;59.950;11.014;2023-07-31T03:02:45;98403.66;;;13.91;78.35
62864;BME280;48954;59.950;11.014;2023-07-31T03:05:12;98401.77;;;13.91;78.47
62864;BME280;48954;59.950;11.014;2023-07-31T03:07:39;98401.07;;;13.90;78.44
62864;BME280;48954;59.950;11.014;2023-07-31T03:10:06;98402.53;;;13.89;78.53
62864;BME280;48954;59.950;11.014;2023-07-31T03:12:34;98408.09;;;13.88;78.58
62864;BME280;48954;59.950;11.014;2023-07-31T03:15:05;98412.55;;;13.88;78.70
62864;BME280;48954;59.950;11.014;2023-07-31T03:17:34;98411.52;;;13.89;78.73
62864;BME280;48954;59.950;11.014;2023-07-31T03:20:01;98411.35;;;13.90;78.78
62864;BME280;48954;59.950;11.014;2023-07-31T03:22:30;98411.36;;;13.90;78.78
62864;BME280;48954;59.950;11.014;2023-07-31T03:24:56;98409.07;;;13.89;78.83
62864;BME280;48954;59.950;11.014;2023-07-31T03:27:23;98411.91;;;13.90;78.81
62864;BME280;48954;59.950;11.014;2023-07-31T03:29:50;98414.61;;;13.89;78.88
62864;BME280;48954;59.950;11.014;2023-07-31T03:32:17;98415.00;;;13.89;78.99
62864;BME280;48954;59.950;11.014;2023-07-31T03:34:53;98413.33;;;13.89;78.97
62864;BME280;48954;59.950;11.014;2023-07-31T03:37:24;98406.09;;;13.89;79.03
62864;BME280;48954;59.950;11.014;2023-07-31T03:39:49;98403.91;;;13.90;79.10
62864;BME280;48954;59.950;11.014;2023-07-31T03:42:15;98404.21;;;13.92;79.13
62864;BME280;48954;59.950;11.014;2023-07-31T03:44:41;98398.42;;;13.94;79.14
62864;BME280;48954;59.950;11.014;2023-07-31T03:47:08;98404.98;;;13.96;79.18
62864;BME280;48954;59.950;11.014;2023-07-31T03:49:34;98411.27;;;13.96;79.13
62864;BME280;48954;59.950;11.014;2023-07-31T03:52:00;98408.98;;;13.98;79.19
62864;BME280;48954;59.950;11.014;2023-07-31T03:54:26;98409.89;;;14.01;79.18
62864;BME280;48954;59.950;11.014;2023-07-31T03:56:54;98410.95;;;14.02;79.21
62864;BME280;48954;59.950;11.014;2023-07-31T03:59:20;98409.42;;;14.05;79.23
62864;BME280;48954;59.950;11.014;2023-07-31T04:01:46;98410.66;;;14.07;79.24
62864;BME280;48954;59.950;11.014;2023-07-31T04:04:12;98410.87;;;14.10;79.28
62864;BME280;48954;59.950;11.014;2023-07-31T04:06:38;98413.84;;;14.12;79.27
62864;BME280;48954;59.950;11.014;2023-07-31T04:09:05;98412.77;;;14.15;79.29
62864;BME280;48954;59.950;11.014;2023-07-31T04:11:32;98412.65;;;14.18;79.26
62864;BME280;48954;59.950;11.014;2023-07-31T04:13:58;98414.52;;;14.20;79.26
62864;BME280;48954;59.950;11.014;2023-07-31T04:16:24;98414.89;;;14.21;79.25
62864;BME280;48954;59.950;11.014;2023-07-31T04:18:50;98418.91;;;14.23;79.24
62864;BME280;48954;59.950;11.014;2023-07-31T04:21:16;98411.39;;;14.24;79.23
62864;BME280;48954;59.950;11.014;2023-07-31T04:23:42;98409.09;;;14.25;79.24
62864;BME280;48954;59.950;11.014;2023-07-31T04:26:08;98411.02;;;14.27;79.40
62864;BME280;48954;59.950;11.014;2023-07-31T04:28:34;98412.41;;;14.29;79.26
62864;BME280;48954;59.950;11.014;2023-07-31T04:31:01;98406.55;;;14.30;79.23
62864;BME280;48954;59.950;11.014;2023-07-31T04:33:27;98407.08;;;14.32;79.23
62864;BME280;48954;59.950;11.014;2023-07-31T04:35:54;98408.64;;;14.34;79.24
62864;BME280;48954;59.950;11.014;2023-07-31T04:38:21;98404.28;;;14.35;79.28
62864;BME280;48954;59.950;11.014;2023-07-31T04:40:47;98404.33;;;14.38;79.29
62864;BME280;48954;59.950;11.014;2023-07-31T04:43:13;98402.11;;;14.39;79.21
62864;BME280;48954;59.950;11.014;2023-07-31T04:45:39;98405.46;;;14.42;79.14
62864;BME280;48954;59.950;11.014;2023-07-31T04:48:08;98402.04;;;14.44;79.13
62864;BME280;48954;59.950;11.014;2023-07-31T04:50:36;98397.98;;;14.46;79.15
62864;BME280;48954;59.950;11.014;2023-07-31T04:53:02;98399.15;;;14.47;79.09
62864;BME280;48954;59.950;11.014;2023-07-31T04:55:29;98397.31;;;14.49;79.04
62864;BME280;48954;59.950;11.014;2023-07-31T04:57:55;98396.98;;;14.51;78.94
62864;BME280;48954;59.950;11.014;2023-07-31T05:00:21;98396.48;;;14.51;78.88
62864;BME280;48954;59.950;11.014;2023-07-31T05:02:47;98398.09;;;14.54;78.88
62864;BME280;48954;59.950;11.014;2023-07-31T05:05:13;98400.63;;;14.59;78.89
62864;BME280;48954;59.950;11.014;2023-07-31T05:07:39;98400.66;;;14.63;78.84
62864;BME280;48954;59.950;11.014;2023-07-31T05:10:06;98401.10;;;14.65;78.70
62864;BME280;48954;59.950;11.014;2023-07-31T05:12:32;98400.40;;;14.68;78.66
62864;BME280;48954;59.950;11.014;2023-07-31T05:15:01;98397.76;;;14.71;78.50
62864;BME280;48954;59.950;11.014;2023-07-31T05:17:29;98397.95;;;14.74;78.43
62864;BME280;48954;59.950;11.014;2023-07-31T05:20:10;98393.10;;;14.76;78.30
62864;BME280;48954;59.950;11.014;2023-07-31T05:22:51;98393.83;;;14.83;78.21
62864;BME280;48954;59.950;11.014;2023-07-31T05:25:32;98383.35;;;14.92;78.12
62864;BME280;48954;59.950;11.014;2023-07-31T05:28:11;98388.27;;;14.94;77.99
62864;BME280;48954;59.950;11.014;2023-07-31T05:30:58;98386.67;;;14.95;77.80
62864;BME280;48954;59.950;11.014;2023-07-31T05:33:40;98390.43;;;14.97;77.70
62864;BME280;48954;59.950;11.014;2023-07-31T05:36:06;98386.67;;;15.01;77.36
62864;BME280;48954;59.950;11.014;2023-07-31T05:38:34;98381.30;;;15.09;77.31
62864;BME280;48954;59.950;11.014;2023-07-31T05:41:03;98379.94;;;15.15;77.23
62864;BME280;48954;59.950;11.014;2023-07-31T05:43:29;98378.66;;;15.20;76.93
62864;BME280;48954;59.950;11.014;2023-07-31T05:45:57;98380.64;;;15.24;76.73
62864;BME280;48954;59.950;11.014;2023-07-31T05:48:23;98381.08;;;15.26;76.51
62864;BME280;48954;59.950;11.014;2023-07-31T05:50:49;98385.64;;;15.28;76.37
62864;BME280;48954;59.950;11.014;2023-07-31T05:53:15;98383.15;;;15.30;76.31
62864;BME280;48954;59.950;11.014;2023-07-31T05:55:43;98382.38;;;15.32;76.16
62864;BME280;48954;59.950;11.014;2023-07-31T05:58:11;98382.80;;;15.35;76.10
62864;BME280;48954;59.950;11.014;2023-07-31T06:00:39;98377.14;;;15.37;76.00
62864;BME280;48954;59.950;11.014;2023-07-31T06:03:09;98377.98;;;15.39;75.73
62864;BME280;48954;59.950;11.014;2023-07-31T06:05:35;98377.10;;;15.40;75.70
62864;BME280;48954;59.950;11.014;2023-07-31T06:08:04;98375.95;;;15.43;75.71
62864;BME280;48954;59.950;11.014;2023-07-31T06:10:30;98377.25;;;15.45;75.55
62864;BME280;48954;59.950;11.014;2023-07-31T06:12:59;98377.41;;;15.48;75.59
62864;BME280;48954;59.950;11.014;2023-07-31T06:15:29;98378.47;;;15.51;75.40
62864;BME280;48954;59.950;11.014;2023-07-31T06:17:55;98379.29;;;15.54;75.28
62864;BME280;48954;59.950;11.014;2023-07-31T06:20:22;98379.13;;;15.56;75.07
62864;BME280;48954;59.950;11.014;2023-07-31T06:22:49;98381.33;;;15.60;75.05
62864;BME280;48954;59.950;11.014;2023-07-31T06:25:15;98385.79;;;15.62;74.95
62864;BME280;48954;59.950;11.014;2023-07-31T06:27:41;98389.05;;;15.69;74.81
62864;BME280;48954;59.950;11.014;2023-07-31T06:30:08;98384.11;;;15.83;74.94
62864;BME280;48954;59.950;11.014;2023-07-31T06:32:38;98385.05;;;15.95;74.80
62864;BME280;48954;59.950;11.014;2023-07-31T06:35:05;98388.92;;;16.03;74.53
62864;BME280;48954;59.950;11.014;2023-07-31T06:37:31;98386.60;;;16.08;74.28
62864;BME280;48954;59.950;11.014;2023-07-31T06:39:57;98384.45;;;16.12;74.12
62864;BME280;48954;59.950;11.014;2023-07-31T06:42:23;98387.95;;;16.15;73.75
62864;BME280;48954;59.950;11.014;2023-07-31T06:44:49;98387.19;;;16.17;73.51
62864;BME280;48954;59.950;11.014;2023-07-31T06:47:21;98392.16;;;16.19;73.40
62864;BME280;48954;59.950;11.014;2023-07-31T06:49:56;98390.42;;;16.18;73.22
62864;BME280;48954;59.950;11.014;2023-07-31T06:52:25;98393.05;;;16.17;73.15
62864;BME280;48954;59.950;11.014;2023-07-31T06:55:25;98392.27;;;16.18;73.03
62864;BME280;48954;59.950;11.014;2023-07-31T06:57:54;98393.52;;;16.18;72.81
62864;BME280;48954;59.950;11.014;2023-07-31T07:00:36;98392.58;;;16.18;72.60
62864;BME280;48954;59.950;11.014;2023-07-31T07:03:03;98395.46;;;16.16;72.29
62864;BME280;48954;59.950;11.014;2023-07-31T07:05:29;98395.11;;;16.17;72.35
62864;BME280;48954;59.950;11.014;2023-07-31T07:07:55;98395.55;;;16.19;72.37
62864;BME280;48954;59.950;11.014;2023-07-31T07:10:22;98394.59;;;16.23;72.45
62864;BME280;48954;59.950;11.014;2023-07-31T07:12:49;98396.50;;;16.26;72.31
62864;BME280;48954;59.950;11.014;2023-07-31T07:15:16;98396.23;;;16.31;72.26
62864;BME280;48954;59.950;11.014;2023-07-31T07:17:59;98395.66;;;16.35;71.94
62864;BME280;48954;59.950;11.014;2023-07-31T07:21:11;98395.55;;;16.40;71.74
62864;BME280;48954;59.950;11.014;2023-07-31T07:24:05;98395.88;;;16.43;71.65
62864;BME280;48954;59.950;11.014;2023-07-31T07:26:37;98396.22;;;16.49;71.57
62864;BME280;48954;59.950;11.014;2023-07-31T07:29:03;98395.75;;;16.52;70.87
62864;BME280;48954;59.950;11.014;2023-07-31T07:31:31;98396.02;;;16.54;70.79
62864;BME280;48954;59.950;11.014;2023-07-31T07:33:58;98393.72;;;16.58;70.60
62864;BME280;48954;59.950;11.014;2023-07-31T07:36:24;98401.96;;;16.62;70.72
62864;BME280;48954;59.950;11.014;2023-07-31T07:38:52;98396.02;;;16.69;70.52
62864;BME280;48954;59.950;11.014;2023-07-31T07:41:19;98397.27;;;16.74;70.37
62864;BME280;48954;59.950;11.014;2023-07-31T07:43:49;98400.08;;;16.85;70.41
62864;BME280;48954;59.950;11.014;2023-07-31T07:46:23;98400.58;;;16.97;69.90
62864;BME280;48954;59.950;11.014;2023-07-31T07:49:05;98400.05;;;17.02;69.76
62864;BME280;48954;59.950;11.014;2023-07-31T07:51:33;98403.03;;;17.07;69.48
62864;BME280;48954;59.950;11.014;2023-07-31T07:54:15;98405.48;;;17.10;69.09
62864;BME280;48954;59.950;11.014;2023-07-31T07:56:44;98404.98;;;17.11;68.90
62864;BME280;48954;59.950;11.014;2023-07-31T07:59:24;98404.41;;;17.12;68.53
62864;BME280;48954;59.950;11.014;2023-07-31T08:02:05;98402.77;;;17.14;68.28
62864;BME280;48954;59.950;11.014;2023-07-31T08:04:49;98404.36;;;17.13;68.16
62864;BME280;48954;59.950;11.014;2023-07-31T08:07:21;98409.89;;;17.14;68.02
62864;BME280;48954;59.950;11.014;2023-07-31T08:09:48;98408.75;;;17.19;68.23
62864;BME280;48954;59.950;11.014;2023-07-31T08:12:15;98409.30;;;17.40;68.36
62864;BME280;48954;59.950;11.014;2023-07-31T08:14:45;98409.86;;;17.52;68.14
62864;BME280;48954;59.950;11.014;2023-07-31T08:17:13;98411.45;;;17.58;68.11
62864;BME280;48954;59.950;11.014;2023-07-31T08:19:53;98411.48;;;17.63;67.76
62864;BME280;48954;59.950;11.014;2023-07-31T08:22:22;98410.02;;;17.65;67.42
62864;BME280;48954;59.950;11.014;2023-07-31T08:24:49;98406.80;;;17.66;67.37
62864;BME280;48954;59.950;11.014;2023-07-31T08:27:16;98409.49;;;17.66;67.18
62864;BME280;48954;59.950;11.014;2023-07-31T08:29:43;98405.10;;;17.67;67.06
62864;BME280;48954;59.950;11.014;2023-07-31T08:32:10;98404.02;;;17.69;67.38
62864;BME280;48954;59.950;11.014;2023-07-31T08:34:37;98406.34;;;17.71;67.01
62864;BME280;48954;59.950;11.014;2023-07-31T08:37:03;98412.13;;;17.72;66.61
62864;BME280;48954;59.950;11.014;2023-07-31T08:39:29;98412.34;;;17.69;66.10
62864;BME280;48954;59.950;11.014;2023-07-31T08:41:59;98411.11;;;17.65;65.72
62864;BME280;48954;59.950;11.014;2023-07-31T08:44:25;98408.45;;;17.60;65.35
62864;BME280;48954;59.950;11.014;2023-07-31T08:46:52;98406.02;;;17.56;65.25
62864;BME280;48954;59.950;11.014;2023-07-31T08:49:19;98403.91;;;17.55;65.12
62864;BME280;48954;59.950;11.014;2023-07-31T08:51:46;98399.55;;;17.52;64.64
62864;BME280;48954;59.950;11.014;2023-07-31T08:54:14;98401.34;;;17.50;64.65
62864;BME280;48954;59.950;11.014;2023-07-31T08:56:41;98399.73;;;17.48;64.56
62864;BME280;48954;59.950;11.014;2023-07-31T08:59:11;98401.46;;;17.46;64.54
62864;BME280;48954;59.950;11.014;2023-07-31T09:01:50;98403.43;;;17.42;64.45
62864;BME280;48954;59.950;11.014;2023-07-31T09:04:17;98403.16;;;17.41;64.65
62864;BME280;48954;59.950;11.014;2023-07-31T09:06:45;98409.19;;;17.41;64.88
62864;BME280;48954;59.950;11.014;2023-07-31T09:09:12;98407.50;;;17.42;64.95
62864;BME280;48954;59.950;11.014;2023-07-31T09:11:38;98410.37;;;17.41;64.47
62864;BME280;48954;59.950;11.014;2023-07-31T09:14:08;98410.46;;;17.39;64.18
62864;BME280;48954;59.950;11.014;2023-07-31T09:16:34;98410.56;;;17.38;64.20
62864;BME280;48954;59.950;11.014;2023-07-31T09:19:02;98409.56;;;17.37;64.12
62864;BME280;48954;59.950;11.014;2023-07-31T09:21:28;98410.98;;;17.40;64.06
62864;BME280;48954;59.950;11.014;2023-07-31T09:23:59;98410.05;;;17.41;63.89
62864;BME280;48954;59.950;11.014;2023-07-31T09:26:35;98406.51;;;17.43;64.16
62864;BME280;48954;59.950;11.014;2023-07-31T09:29:06;98407.85;;;17.47;64.20
62864;BME280;48954;59.950;11.014;2023-07-31T09:31:41;98404.07;;;17.55;64.74
62864;BME280;48954;59.950;11.014;2023-07-31T09:34:08;98404.27;;;17.62;64.54
62864;BME280;48954;59.950;11.014;2023-07-31T09:36:49;98402.45;;;17.66;63.96
62864;BME280;48954;59.950;11.014;2023-07-31T09:39:17;98408.23;;;17.66;63.53
62864;BME280;48954;59.950;11.014;2023-07-31T09:41:46;98414.23;;;17.65;63.27
62864;BME280;48954;59.950;11.014;2023-07-31T09:44:13;98418.68;;;17.67;63.49
62864;BME280;48954;59.950;11.014;2023-07-31T09:46:39;98412.79;;;17.71;63.72
62864;BME280;48954;59.950;11.014;2023-07-31T09:49:13;98416.06;;;17.74;63.67
62864;BME280;48954;59.950;11.014;2023-07-31T09:51:42;98413.81;;;17.74;63.16
62864;BME280;48954;59.950;11.014;2023-07-31T09:54:16;98413.42;;;17.77;62.67
62864;BME280;48954;59.950;11.014;2023-07-31T09:56:44;98412.92;;;17.80;62.08
62864;BME280;48954;59.950;11.014;2023-07-31T09:59:12;98411.27;;;17.86;62.45
62864;BME280;48954;59.950;11.014;2023-07-31T10:01:40;98411.17;;;17.94;62.25
62864;BME280;48954;59.950;11.014;2023-07-31T10:04:11;98407.45;;;18.03;62.19
62864;BME280;48954;59.950;11.014;2023-07-31T10:06:40;98410.81;;;18.09;62.27
62864;BME280;48954;59.950;11.014;2023-07-31T10:09:21;98408.36;;;18.15;61.99
62864;BME280;48954;59.950;11.014;2023-07-31T10:12:02;98409.77;;;18.20;61.60
62864;BME280;48954;59.950;11.014;2023-07-31T10:14:51;98407.39;;;18.26;61.67
62864;BME280;48954;59.950;11.014;2023-07-31T10:17:22;98402.36;;;18.37;62.05
62864;BME280;48954;59.950;11.014;2023-07-31T10:19:49;98402.85;;;18.39;62.10
62864;BME280;48954;59.950;11.014;2023-07-31T10:22:15;98399.27;;;18.37;61.89
62864;BME280;48954;59.950;11.014;2023-07-31T10:24:43;98403.61;;;18.32;61.89
62864;BME280;48954;59.950;11.014;2023-07-31T10:27:18;98402.97;;;18.28;61.85
62864;BME280;48954;59.950;11.014;2023-07-31T10:29:45;98397.52;;;18.23;61.92
62864;BME280;48954;59.950;11.014;2023-07-31T10:32:11;98394.09;;;18.18;61.53
62864;BME280;48954;59.950;11.014;2023-07-31T10:34:39;98391.02;;;18.12;61.35
62864;BME280;48954;59.950;11.014;2023-07-31T10:37:27;98387.27;;;18.05;61.34
62864;BME280;48954;59.950;11.014;2023-07-31T10:40:10;98388.66;;;17.98;61.65
62864;BME280;48954;59.950;11.014;2023-07-31T10:45:33;98390.80;;;17.85;62.03
62864;BME280;48954;59.950;11.014;2023-07-31T10:48:03;98395.81;;;17.76;62.43
62864;BME280;48954;59.950;11.014;2023-07-31T10:50:31;98397.10;;;17.69;63.02
62864;BME280;48954;59.950;11.014;2023-07-31T10:52:57;98401.14;;;17.64;63.71
62864;BME280;48954;59.950;11.014;2023-07-31T10:58:14;98401.94;;;17.52;64.41
62864;BME280;48954;59.950;11.014;2023-07-31T11:00:44;98400.48;;;17.43;64.80
62864;BME280;48954;59.950;11.014;2023-07-31T11:03:16;98401.11;;;17.35;64.95
62864;BME280;48954;59.950;11.014;2023-07-31T11:05:47;98397.89;;;17.24;65.10
62864;BME280;48954;59.950;11.014;2023-07-31T11:08:27;98397.99;;;17.17;65.30
62864;BME280;48954;59.950;11.014;2023-07-31T11:13:39;98399.63;;;17.06;65.67
62864;BME280;48954;59.950;11.014;2023-07-31T11:16:06;98394.95;;;17.02;66.04
62864;BME280;48954;59.950;11.014;2023-07-31T11:18:32;98399.48;;;17.02;66.49
62864;BME280;48954;59.950;11.014;2023-07-31T11:20:59;98397.09;;;17.03;66.70
62864;BME280;48954;59.950;11.014;2023-07-31T11:23:26;98395.58;;;17.03;66.73
62864;BME280;48954;59.950;11.014;2023-07-31T11:26:00;98397.61;;;17.04;66.91
62864;BME280;48954;59.950;11.014;2023-07-31T11:28:43;98403.83;;;17.06;67.25
62864;BME280;48954;59.950;11.014;2023-07-31T11:31:56;98401.52;;;17.10;67.71
62864;BME280;48954;59.950;11.014;2023-07-31T11:34:54;98403.31;;;17.11;68.16
62864;BME280;48954;59.950;11.014;2023-07-31T11:37:44;98406.35;;;17.16;68.41
62864;BME280;48954;59.950;11.014;2023-07-31T11:40:12;98404.80;;;17.21;68.77
62864;BME280;48954;59.950;11.014;2023-07-31T11:42:52;98408.80;;;17.28;69.05
62864;BME280;48954;59.950;11.014;2023-07-31T11:45:40;98416.20;;;17.37;69.08
62864;BME280;48954;59.950;11.014;2023-07-31T11:48:06;98411.77;;;17.46;69.41
62864;BME280;48954;59.950;11.014;2023-07-31T11:50:33;98414.11;;;17.50;69.24
62864;BME280;48954;59.950;11.014;2023-07-31T11:53:06;98410.81;;;17.55;69.39
62864;BME280;48954;59.950;11.014;2023-07-31T11:55:34;98405.74;;;17.60;69.47
62864;BME280;48954;59.950;11.014;2023-07-31T11:58:01;98404.61;;;17.65;69.00
62864;BME280;48954;59.950;11.014;2023-07-31T12:00:40;98400.92;;;17.72;69.03
62864;BME280;48954;59.950;11.014;2023-07-31T12:03:07;98399.51;;;17.80;69.12
62864;BME280;48954;59.950;11.014;2023-07-31T12:05:34;98394.52;;;17.96;69.11
62864;BME280;48954;59.950;11.014;2023-07-31T12:08:09;98397.89;;;18.13;68.94
62864;BME280;48954;59.950;11.014;2023-07-31T12:10:35;98395.06;;;18.34;68.65
62864;BME280;48954;59.950;11.014;2023-07-31T12:13:03;98393.73;;;18.51;67.97
62864;BME280;48954;59.950;11.014;2023-07-31T12:15:41;98396.73;;;18.76;66.98
62864;BME280;48954;59.950;11.014;2023-07-31T12:18:15;98394.95;;;19.06;66.56
62864;BME280;48954;59.950;11.014;2023-07-31T12:20:55;98395.98;;;19.01;65.97
62864;BME280;48954;59.950;11.014;2023-07-31T12:23:23;98390.80;;;18.86;65.34
62864;BME280;48954;59.950;11.014;2023-07-31T12:26:00;98396.54;;;18.74;65.03
62864;BME280;48954;59.950;11.014;2023-07-31T12:28:26;98389.88;;;18.73;65.19
62864;BME280;48954;59.950;11.014;2023-07-31T12:30:57;98388.67;;;18.81;64.88
62864;BME280;48954;59.950;11.014;2023-07-31T12:33:23;98386.69;;;18.78;64.35
62864;BME280;48954;59.950;11.014;2023-07-31T12:35:49;98384.80;;;18.75;63.91
62864;BME280;48954;59.950;11.014;2023-07-31T12:38:15;98382.88;;;18.73;64.13
62864;BME280;48954;59.950;11.014;2023-07-31T12:40:42;98382.05;;;18.67;64.23
62864;BME280;48954;59.950;11.014;2023-07-31T12:43:08;98380.63;;;18.64;64.28
62864;BME280;48954;59.950;11.014;2023-07-31T12:45:34;98376.84;;;18.63;63.93
62864;BME280;48954;59.950;11.014;2023-07-31T12:48:02;98375.49;;;18.68;63.86
62864;BME280;48954;59.950;11.014;2023-07-31T12:50:37;98370.63;;;18.73;63.72
62864;BME280;48954;59.950;11.014;2023-07-31T12:53:05;98369.83;;;18.73;63.92
62864;BME280;48954;59.950;11.014;2023-07-31T12:55:31;98370.46;;;18.73;63.43
62864;BME280;48954;59.950;11.014;2023-07-31T12:57:57;98367.79;;;18.72;63.30
62864;BME280;48954;59.950;11.014;2023-07-31T13:00:24;98367.77;;;18.70;63.01
62864;BME280;48954;59.950;11.014;2023-07-31T13:02:51;98362.82;;;18.69;63.08
62864;BME280;48954;59.950;11.014;2023-07-31T13:05:18;98364.05;;;18.65;62.76
62864;BME280;48954;59.950;11.014;2023-07-31T13:07:44;98361.22;;;18.58;62.63
62864;BME280;48954;59.950;11.014;2023-07-31T13:10:10;98363.14;;;18.53;62.32
62864;BME280;48954;59.950;11.014;2023-07-31T13:12:39;98369.90;;;18.47;62.34
62864;BME280;48954;59.950;11.014;2023-07-31T13:15:06;98369.89;;;18.45;62.68
62864;BME280;48954;59.950;11.014;2023-07-31T13:17:35;98369.89;;;18.43;62.63
62864;BME280;48954;59.950;11.014;2023-07-31T13:20:02;98371.34;;;18.42;62.91